sensor_id;sensor_type;location;lat;lon;timestamp;pressure;altitude;pressure_sealevel;temperature;humidity
43480;BME280;29067;35.492;-97.520;2023-03-21T00:01:01;97223.80;;;4.04;43.80
43480;BME280;29067;35.492;-97.520;2023-03-21T00:03:30;97192.81;;;4.90;42.29
43480;BME280;29067;35.492;-97.520;2023-03-21T00:05:59;97193.01;;;5.26;42.59
43480;BME280;29067;35.492;-97.520;2023-03-21T00:08:32;97191.26;;;5.37;42.31
43480;BME280;29067;35.492;-97.520;2023-03-21T00:11:02;97187.51;;;5.14;42.26
43480;BME280;29067;35.492;-97.520;2023-03-21T00:13:32;97185.61;;;5.05;42.05
43480;BME280;29067;35.492;-97.520;2023-03-21T00:16:04;97183.27;;;4.37;42.84
43480;BME280;29067;35.492;-97.520;2023-03-21T00:18:34;97185.48;;;4.38;42.94
43480;BME280;29067;35.492;-97.520;2023-03-21T00:21:04;97185.51;;;4.26;42.66
43480;BME280;29067;35.492;-97.520;2023-03-21T00:23:33;97185.92;;;4.61;43.31
43480;BME280;29067;35.492;-97.520;2023-03-21T00:26:01;97180.47;;;4.89;42.13
43480;BME280;29067;35.492;-97.520;2023-03-21T00:28:29;97168.16;;;5.42;42.22
43480;BME280;29067;35.492;-97.520;2023-03-21T00:30:58;97169.41;;;4.71;42.75
43480;BME280;29067;35.492;-97.520;2023-03-21T00:33:27;97168.75;;;4.77;42.66
43480;BME280;29067;35.492;-97.520;2023-03-21T00:35:55;97156.26;;;4.94;42.03
43480;BME280;29067;35.492;-97.520;2023-03-21T00:38:23;97160.53;;;4.90;42.03
43480;BME280;29067;35.492;-97.520;2023-03-21T00:40:52;97170.26;;;4.21;41.68
43480;BME280;29067;35.492;-97.520;2023-03-21T00:43:20;97166.06;;;4.33;42.57
43480;BME280;29067;35.492;-97.520;2023-03-21T00:45:49;97164.94;;;5.29;41.69
43480;BME280;29067;35.492;-97.520;2023-03-21T00:48:17;97165.87;;;4.74;42.18
43480;BME280;29067;35.492;-97.520;2023-03-21T00:50:46;97157.64;;;4.50;42.48
43480;BME280;29067;35.492;-97.520;2023-03-21T00:53:15;97159.47;;;4.83;42.40
43480;BME280;29067;35.492;-97.520;2023-03-21T00:55:42;97164.16;;;3.70;43.47
43480;BME280;29067;35.492;-97.520;2023-03-21T00:58:10;97151.69;;;4.31;42.76
43480;BME280;29067;35.492;-97.520;2023-03-21T01:00:39;97149.88;;;4.82;42.27
43480;BME280;29067;35.492;-97.520;2023-03-21T01:03:09;97155.61;;;4.65;41.71
43480;BME280;29067;35.492;-97.520;2023-03-21T01:05:40;97147.63;;;4.83;41.04
43480;BME280;29067;35.492;-97.520;2023-03-21T01:08:08;97150.70;;;4.46;42.33
43480;BME280;29067;35.492;-97.520;2023-03-21T01:10:38;97146.14;;;4.00;42.73
43480;BME280;29067;35.492;-97.520;2023-03-21T01:13:07;97150.90;;;4.01;42.62
43480;BME280;29067;35.492;-97.520;2023-03-21T01:15:41;97146.91;;;3.70;43.43
43480;BME280;29067;35.492;-97.520;2023-03-21T01:18:09;97153.74;;;3.83;43.03
43480;BME280;29067;35.492;-97.520;2023-03-21T01:20:40;97150.22;;;3.11;44.21
43480;BME280;29067;35.492;-97.520;2023-03-21T01:23:10;97153.28;;;3.44;44.33
43480;BME280;29067;35.492;-97.520;2023-03-21T01:25:40;97153.07;;;3.95;43.40
43480;BME280;29067;35.492;-97.520;2023-03-21T01:28:08;97159.12;;;3.63;43.35
43480;BME280;29067;35.492;-97.520;2023-03-21T01:30:37;97155.77;;;3.39;43.74
43480;BME280;29067;35.492;-97.520;2023-03-21T01:33:06;97153.00;;;3.69;43.73
43480;BME280;29067;35.492;-97.520;2023-03-21T01:35:35;97132.39;;;3.87;43.00
43480;BME280;29067;35.492;-97.520;2023-03-21T01:38:03;97134.92;;;4.29;42.65
43480;BME280;29067;35.492;-97.520;2023-03-21T01:40:32;97128.87;;;3.40;42.32
43480;BME280;29067;35.492;-97.520;2023-03-21T01:43:00;97133.30;;;4.24;42.49
43480;BME280;29067;35.492;-97.520;2023-03-21T01:47:40;97135.10;;;4.04;42.74
43480;BME280;29067;35.492;-97.520;2023-03-21T01:50:09;97127.86;;;3.48;42.37
43480;BME280;29067;35.492;-97.520;2023-03-21T01:52:38;97130.96;;;4.14;41.27
43480;BME280;29067;35.492;-97.520;2023-03-21T01:55:09;97136.93;;;3.80;42.09
43480;BME280;29067;35.492;-97.520;2023-03-21T01:57:42;97154.18;;;4.26;41.85
43480;BME280;29067;35.492;-97.520;2023-03-21T02:00:12;97141.13;;;3.26;41.98
43480;BME280;29067;35.492;-97.520;2023-03-21T02:02:43;97136.01;;;3.65;42.18
43480;BME280;29067;35.492;-97.520;2023-03-21T02:05:12;97130.50;;;3.43;41.61
43480;BME280;29067;35.492;-97.520;2023-03-21T02:07:41;97132.15;;;3.21;41.94
43480;BME280;29067;35.492;-97.520;2023-03-21T02:10:11;97118.49;;;3.01;41.78
43480;BME280;29067;35.492;-97.520;2023-03-21T02:12:40;97104.58;;;3.83;40.75
43480;BME280;29067;35.492;-97.520;2023-03-21T02:15:09;97117.46;;;3.19;41.97
43480;BME280;29067;35.492;-97.520;2023-03-21T02:17:40;97116.51;;;3.44;41.69
43480;BME280;29067;35.492;-97.520;2023-03-21T02:20:55;97120.42;;;3.11;41.26
43480;BME280;29067;35.492;-97.520;2023-03-21T02:23:45;97105.81;;;3.43;42.24
43480;BME280;29067;35.492;-97.520;2023-03-21T02:27:24;97097.18;;;2.60;41.61
43480;BME280;29067;35.492;-97.520;2023-03-21T02:30:08;97114.98;;;2.17;42.68
43480;BME280;29067;35.492;-97.520;2023-03-21T02:32:55;97121.49;;;1.63;43.23
43480;BME280;29067;35.492;-97.520;2023-03-21T02:35:34;97119.87;;;2.80;41.69
43480;BME280;29067;35.492;-97.520;2023-03-21T02:38:09;97125.81;;;2.69;42.16
43480;BME280;29067;35.492;-97.520;2023-03-21T02:40:41;97122.14;;;2.09;42.96
43480;BME280;29067;35.492;-97.520;2023-03-21T02:43:16;97120.87;;;3.62;41.40
43480;BME280;29067;35.492;-97.520;2023-03-21T02:45:50;97125.02;;;2.76;40.95
43480;BME280;29067;35.492;-97.520;2023-03-21T02:48:23;97129.10;;;2.61;41.38
43480;BME280;29067;35.492;-97.520;2023-03-21T02:50:55;97120.71;;;2.69;41.26
43480;BME280;29067;35.492;-97.520;2023-03-21T02:53:30;97121.69;;;3.13;41.46
43480;BME280;29067;35.492;-97.520;2023-03-21T02:56:01;97125.47;;;2.67;41.07
43480;BME280;29067;35.492;-97.520;2023-03-21T02:58:31;97117.51;;;2.98;40.48
43480;BME280;29067;35.492;-97.520;2023-03-21T03:01:00;97121.89;;;2.34;41.21
43480;BME280;29067;35.492;-97.520;2023-03-21T03:03:28;97132.32;;;2.55;40.60
43480;BME280;29067;35.492;-97.520;2023-03-21T03:05:58;97138.81;;;2.54;40.60
43480;BME280;29067;35.492;-97.520;2023-03-21T03:08:35;97141.44;;;2.91;40.04
43480;BME280;29067;35.492;-97.520;2023-03-21T03:11:16;97140.04;;;2.46;40.84
43480;BME280;29067;35.492;-97.520;2023-03-21T03:13:58;97135.67;;;2.05;41.35
43480;BME280;29067;35.492;-97.520;2023-03-21T03:16:42;97143.13;;;3.48;39.73
43480;BME280;29067;35.492;-97.520;2023-03-21T03:19:17;97141.41;;;2.66;40.73
43480;BME280;29067;35.492;-97.520;2023-03-21T03:21:57;97134.19;;;2.99;39.92
43480;BME280;29067;35.492;-97.520;2023-03-21T03:24:28;97145.97;;;2.62;39.83
43480;BME280;29067;35.492;-97.520;2023-03-21T03:27:01;97138.86;;;2.29;40.45
43480;BME280;29067;35.492;-97.520;2023-03-21T03:29:34;97138.49;;;2.78;39.77
43480;BME280;29067;35.492;-97.520;2023-03-21T03:32:09;97139.78;;;2.84;40.55
43480;BME280;29067;35.492;-97.520;2023-03-21T03:34:40;97138.32;;;2.42;40.77
43480;BME280;29067;35.492;-97.520;2023-03-21T03:37:13;97138.34;;;1.40;41.13
43480;BME280;29067;35.492;-97.520;2023-03-21T03:39:46;97135.58;;;2.50;40.53
43480;BME280;29067;35.492;-97.520;2023-03-21T03:42:20;97128.38;;;2.21;40.09
43480;BME280;29067;35.492;-97.520;2023-03-21T03:44:51;97132.51;;;1.88;40.46
43480;BME280;29067;35.492;-97.520;2023-03-21T03:47:23;97121.63;;;2.51;40.75
43480;BME280;29067;35.492;-97.520;2023-03-21T03:50:01;97124.53;;;2.49;40.16
43480;BME280;29067;35.492;-97.520;2023-03-21T03:52:35;97117.49;;;2.30;40.69
43480;BME280;29067;35.492;-97.520;2023-03-21T03:55:05;97120.71;;;1.79;41.22
43480;BME280;29067;35.492;-97.520;2023-03-21T03:57:34;97136.60;;;1.62;41.50
43480;BME280;29067;35.492;-97.520;2023-03-21T04:00:04;97125.33;;;2.37;40.89
43480;BME280;29067;35.492;-97.520;2023-03-21T04:02:32;97118.67;;;2.04;41.22
43480;BME280;29067;35.492;-97.520;2023-03-21T04:05:00;97118.15;;;2.06;41.15
43480;BME280;29067;35.492;-97.520;2023-03-21T04:07:28;97115.90;;;2.21;41.29
43480;BME280;29067;35.492;-97.520;2023-03-21T04:09:56;97111.83;;;2.72;40.72
43480;BME280;29067;35.492;-97.520;2023-03-21T04:12:24;97112.27;;;1.94;41.21
43480;BME280;29067;35.492;-97.520;2023-03-21T04:14:52;97107.55;;;1.78;41.81
43480;BME280;29067;35.492;-97.520;2023-03-21T04:17:20;97128.33;;;1.55;41.90
43480;BME280;29067;35.492;-97.520;2023-03-21T04:19:48;97119.80;;;2.23;41.65
43480;BME280;29067;35.492;-97.520;2023-03-21T04:22:16;97120.50;;;2.17;41.70
43480;BME280;29067;35.492;-97.520;2023-03-21T04:24:44;97117.01;;;2.33;41.22
43480;BME280;29067;35.492;-97.520;2023-03-21T04:27:12;97115.16;;;1.78;42.51
43480;BME280;29067;35.492;-97.520;2023-03-21T04:29:41;97113.28;;;3.42;40.86
43480;BME280;29067;35.492;-97.520;2023-03-21T04:32:09;97122.99;;;2.45;41.52
43480;BME280;29067;35.492;-97.520;2023-03-21T04:34:36;97120.31;;;2.48;42.22
43480;BME280;29067;35.492;-97.520;2023-03-21T04:37:04;97113.71;;;2.52;42.38
43480;BME280;29067;35.492;-97.520;2023-03-21T04:39:32;97113.83;;;1.84;42.99
43480;BME280;29067;35.492;-97.520;2023-03-21T04:42:00;97109.97;;;1.70;42.75
43480;BME280;29067;35.492;-97.520;2023-03-21T04:44:29;97113.60;;;1.91;43.24
43480;BME280;29067;35.492;-97.520;2023-03-21T04:46:56;97114.41;;;2.15;43.02
43480;BME280;29067;35.492;-97.520;2023-03-21T04:49:24;97126.19;;;2.13;42.66
43480;BME280;29067;35.492;-97.520;2023-03-21T04:51:53;97119.94;;;2.50;42.56
43480;BME280;29067;35.492;-97.520;2023-03-21T04:54:21;97115.86;;;1.67;44.02
43480;BME280;29067;35.492;-97.520;2023-03-21T04:56:49;97119.42;;;1.92;43.43
43480;BME280;29067;35.492;-97.520;2023-03-21T04:59:18;97124.46;;;2.26;43.04
43480;BME280;29067;35.492;-97.520;2023-03-21T05:01:45;97120.29;;;1.69;43.60
43480;BME280;29067;35.492;-97.520;2023-03-21T05:04:14;97130.90;;;2.12;43.79
43480;BME280;29067;35.492;-97.520;2023-03-21T05:06:43;97120.32;;;2.38;43.43
43480;BME280;29067;35.492;-97.520;2023-03-21T05:09:12;97126.07;;;0.92;45.41
43480;BME280;29067;35.492;-97.520;2023-03-21T05:11:41;97126.23;;;2.02;43.95
43480;BME280;29067;35.492;-97.520;2023-03-21T05:14:11;97115.86;;;2.74;43.93
43480;BME280;29067;35.492;-97.520;2023-03-21T05:16:43;97113.44;;;2.55;43.67
43480;BME280;29067;35.492;-97.520;2023-03-21T05:19:11;97113.38;;;2.37;43.60
43480;BME280;29067;35.492;-97.520;2023-03-21T05:21:41;97113.97;;;2.07;44.54
43480;BME280;29067;35.492;-97.520;2023-03-21T05:24:12;97098.67;;;2.88;43.91
43480;BME280;29067;35.492;-97.520;2023-03-21T05:26:41;97104.95;;;2.30;44.42
43480;BME280;29067;35.492;-97.520;2023-03-21T05:29:10;97081.13;;;1.65;45.44
43480;BME280;29067;35.492;-97.520;2023-03-21T05:31:38;97086.76;;;2.49;45.09
43480;BME280;29067;35.492;-97.520;2023-03-21T05:34:06;97086.10;;;2.14;43.97
43480;BME280;29067;35.492;-97.520;2023-03-21T05:36:34;97071.41;;;1.85;44.53
43480;BME280;29067;35.492;-97.520;2023-03-21T05:39:03;97065.55;;;2.66;43.80
43480;BME280;29067;35.492;-97.520;2023-03-21T05:41:32;97062.83;;;1.96;45.97
43480;BME280;29067;35.492;-97.520;2023-03-21T05:43:59;97066.64;;;2.34;46.35
43480;BME280;29067;35.492;-97.520;2023-03-21T05:46:27;97073.56;;;2.23;46.27
43480;BME280;29067;35.492;-97.520;2023-03-21T05:48:55;97073.67;;;2.32;46.42
43480;BME280;29067;35.492;-97.520;2023-03-21T05:51:23;97062.86;;;2.36;46.05
43480;BME280;29067;35.492;-97.520;2023-03-21T05:53:51;97061.89;;;2.65;46.12
43480;BME280;29067;35.492;-97.520;2023-03-21T05:56:19;97054.18;;;2.38;46.42
43480;BME280;29067;35.492;-97.520;2023-03-21T05:58:47;97051.90;;;2.58;45.93
43480;BME280;29067;35.492;-97.520;2023-03-21T06:01:15;97043.05;;;2.90;46.95
43480;BME280;29067;35.492;-97.520;2023-03-21T06:03:43;97039.26;;;3.22;46.26
43480;BME280;29067;35.492;-97.520;2023-03-21T06:06:11;97038.58;;;2.62;46.56
43480;BME280;29067;35.492;-97.520;2023-03-21T06:08:39;97031.27;;;2.80;47.92
43480;BME280;29067;35.492;-97.520;2023-03-21T06:11:23;97026.76;;;3.37;47.40
43480;BME280;29067;35.492;-97.520;2023-03-21T06:13:52;97030.65;;;2.02;48.38
43480;BME280;29067;35.492;-97.520;2023-03-21T06:16:20;97031.05;;;2.80;48.64
43480;BME280;29067;35.492;-97.520;2023-03-21T06:18:48;97027.35;;;3.34;48.28
43480;BME280;29067;35.492;-97.520;2023-03-21T06:21:17;97021.78;;;3.83;47.87
43480;BME280;29067;35.492;-97.520;2023-03-21T06:23:45;97024.46;;;3.27;48.86
43480;BME280;29067;35.492;-97.520;2023-03-21T06:26:13;97020.33;;;3.49;48.91
43480;BME280;29067;35.492;-97.520;2023-03-21T06:28:41;97025.66;;;2.08;49.96
43480;BME280;29067;35.492;-97.520;2023-03-21T06:31:08;97022.82;;;1.76;52.11
43480;BME280;29067;35.492;-97.520;2023-03-21T06:33:36;97020.29;;;2.29;50.97
43480;BME280;29067;35.492;-97.520;2023-03-21T06:36:05;97026.22;;;2.43;51.02
43480;BME280;29067;35.492;-97.520;2023-03-21T06:38:33;97011.08;;;2.47;50.72
43480;BME280;29067;35.492;-97.520;2023-03-21T06:41:01;97014.62;;;2.88;50.33
43480;BME280;29067;35.492;-97.520;2023-03-21T06:43:29;97012.17;;;3.30;50.19
43480;BME280;29067;35.492;-97.520;2023-03-21T06:45:57;97031.28;;;3.04;51.51
43480;BME280;29067;35.492;-97.520;2023-03-21T06:48:25;97014.73;;;2.55;51.86
43480;BME280;29067;35.492;-97.520;2023-03-21T06:50:54;97017.66;;;2.99;52.22
43480;BME280;29067;35.492;-97.520;2023-03-21T06:53:23;97024.05;;;2.16;54.72
43480;BME280;29067;35.492;-97.520;2023-03-21T06:55:53;97019.33;;;2.41;53.85
43480;BME280;29067;35.492;-97.520;2023-03-21T06:58:21;97008.20;;;2.80;53.61
43480;BME280;29067;35.492;-97.520;2023-03-21T07:00:49;97001.38;;;2.74;53.08
43480;BME280;29067;35.492;-97.520;2023-03-21T07:03:17;97002.83;;;2.36;54.01
43480;BME280;29067;35.492;-97.520;2023-03-21T07:05:45;96987.14;;;3.36;53.21
43480;BME280;29067;35.492;-97.520;2023-03-21T07:08:13;96979.92;;;3.37;52.53
43480;BME280;29067;35.492;-97.520;2023-03-21T07:10:42;96987.81;;;2.53;53.20
43480;BME280;29067;35.492;-97.520;2023-03-21T07:13:11;96976.76;;;2.85;54.39
43480;BME280;29067;35.492;-97.520;2023-03-21T07:15:39;96970.21;;;3.87;53.11
43480;BME280;29067;35.492;-97.520;2023-03-21T07:18:08;96970.38;;;3.18;54.86
43480;BME280;29067;35.492;-97.520;2023-03-21T07:20:37;96981.81;;;2.65;55.96
43480;BME280;29067;35.492;-97.520;2023-03-21T07:23:05;96997.17;;;3.97;54.35
43480;BME280;29067;35.492;-97.520;2023-03-21T07:25:32;96997.16;;;2.62;57.02
43480;BME280;29067;35.492;-97.520;2023-03-21T07:28:00;96987.49;;;2.88;56.66
43480;BME280;29067;35.492;-97.520;2023-03-21T07:30:28;96998.02;;;2.25;58.97
43480;BME280;29067;35.492;-97.520;2023-03-21T07:32:56;96986.86;;;3.13;58.43
43480;BME280;29067;35.492;-97.520;2023-03-21T07:35:24;96985.33;;;2.51;59.02
43480;BME280;29067;35.492;-97.520;2023-03-21T07:37:52;97000.42;;;3.30;58.84
43480;BME280;29067;35.492;-97.520;2023-03-21T07:40:20;96989.23;;;2.11;59.04
43480;BME280;29067;35.492;-97.520;2023-03-21T07:42:48;96978.80;;;2.44;59.67
43480;BME280;29067;35.492;-97.520;2023-03-21T07:45:16;96988.28;;;3.04;59.65
43480;BME280;29067;35.492;-97.520;2023-03-21T07:47:44;96976.02;;;3.00;60.26
43480;BME280;29067;35.492;-97.520;2023-03-21T07:50:12;96990.74;;;3.28;58.89
43480;BME280;29067;35.492;-97.520;2023-03-21T07:52:41;96968.88;;;2.99;58.63
43480;BME280;29067;35.492;-97.520;2023-03-21T07:55:09;96957.68;;;3.73;58.13
43480;BME280;29067;35.492;-97.520;2023-03-21T07:57:37;96966.10;;;3.04;60.33
43480;BME280;29067;35.492;-97.520;2023-03-21T08:00:06;96951.27;;;3.08;60.52
43480;BME280;29067;35.492;-97.520;2023-03-21T08:02:35;96963.40;;;2.86;60.40
43480;BME280;29067;35.492;-97.520;2023-03-21T08:05:03;96948.95;;;3.00;60.08
43480;BME280;29067;35.492;-97.520;2023-03-21T08:07:31;96951.71;;;2.55;60.90
43480;BME280;29067;35.492;-97.520;2023-03-21T08:10:00;96963.91;;;3.04;60.96
43480;BME280;29067;35.492;-97.520;2023-03-21T08:12:27;96960.02;;;2.25;60.98
43480;BME280;29067;35.492;-97.520;2023-03-21T08:14:56;96954.62;;;2.96;59.85
43480;BME280;29067;35.492;-97.520;2023-03-21T08:17:23;96954.33;;;2.66;59.89
43480;BME280;29067;35.492;-97.520;2023-03-21T08:19:51;96951.57;;;3.53;60.53
43480;BME280;29067;35.492;-97.520;2023-03-21T08:22:19;96970.41;;;2.04;61.72
43480;BME280;29067;35.492;-97.520;2023-03-21T08:24:47;96950.90;;;2.78;63.52
43480;BME280;29067;35.492;-97.520;2023-03-21T08:27:15;96959.74;;;2.20;65.32
43480;BME280;29067;35.492;-97.520;2023-03-21T08:29:44;96951.59;;;2.74;64.39
43480;BME280;29067;35.492;-97.520;2023-03-21T08:32:12;96961.08;;;2.25;66.72
43480;BME280;29067;35.492;-97.520;2023-03-21T08:34:40;96969.70;;;2.80;65.11
43480;BME280;29067;35.492;-97.520;2023-03-21T08:37:08;96994.07;;;2.68;66.00
43480;BME280;29067;35.492;-97.520;2023-03-21T08:39:36;96977.87;;;3.62;64.95
43480;BME280;29067;35.492;-97.520;2023-03-21T08:42:04;96971.49;;;3.20;64.19
43480;BME280;29067;35.492;-97.520;2023-03-21T08:44:32;96995.34;;;1.80;66.59
43480;BME280;29067;35.492;-97.520;2023-03-21T08:47:00;96994.14;;;2.63;66.07
43480;BME280;29067;35.492;-97.520;2023-03-21T08:49:28;96996.81;;;2.40;64.44
43480;BME280;29067;35.492;-97.520;2023-03-21T08:51:56;96994.93;;;2.80;64.28
43480;BME280;29067;35.492;-97.520;2023-03-21T08:54:24;96984.97;;;3.01;63.92
43480;BME280;29067;35.492;-97.520;2023-03-21T08:56:53;96982.23;;;3.47;62.60
43480;BME280;29067;35.492;-97.520;2023-03-21T08:59:21;96976.36;;;3.38;61.46
43480;BME280;29067;35.492;-97.520;2023-03-21T09:01:49;96966.78;;;3.15;61.25
43480;BME280;29067;35.492;-97.520;2023-03-21T09:04:17;96978.81;;;3.51;61.39
43480;BME280;29067;35.492;-97.520;2023-03-21T09:06:46;96975.28;;;2.50;61.76
43480;BME280;29067;35.492;-97.520;2023-03-21T09:09:14;96975.91;;;2.35;62.63
43480;BME280;29067;35.492;-97.520;2023-03-21T09:11:43;96973.25;;;3.82;60.20
43480;BME280;29067;35.492;-97.520;2023-03-21T09:14:11;96954.77;;;2.63;61.47
43480;BME280;29067;35.492;-97.520;2023-03-21T09:16:39;96943.25;;;2.75;63.76
43480;BME280;29067;35.492;-97.520;2023-03-21T09:19:07;96953.49;;;2.41;65.57
43480;BME280;29067;35.492;-97.520;2023-03-21T09:21:36;96973.06;;;1.89;66.96
43480;BME280;29067;35.492;-97.520;2023-03-21T09:24:05;96990.24;;;4.30;64.34
43480;BME280;29067;35.492;-97.520;2023-03-21T09:26:33;97007.18;;;2.32;68.23
43480;BME280;29067;35.492;-97.520;2023-03-21T09:29:01;97003.50;;;2.28;71.85
43480;BME280;29067;35.492;-97.520;2023-03-21T09:31:29;96997.78;;;2.81;77.36
43480;BME280;29067;35.492;-97.520;2023-03-21T09:33:58;96994.16;;;1.83;82.65
43480;BME280;29067;35.492;-97.520;2023-03-21T09:36:26;97005.48;;;1.11;87.75
43480;BME280;29067;35.492;-97.520;2023-03-21T09:38:54;97000.53;;;1.48;89.58
43480;BME280;29067;35.492;-97.520;2023-03-21T09:41:36;96998.11;;;2.48;89.83
43480;BME280;29067;35.492;-97.520;2023-03-21T09:44:18;97001.62;;;1.53;93.26
43480;BME280;29067;35.492;-97.520;2023-03-21T09:46:52;97003.77;;;1.14;96.00
43480;BME280;29067;35.492;-97.520;2023-03-21T09:49:25;97004.10;;;1.56;97.37
43480;BME280;29067;35.492;-97.520;2023-03-21T09:51:54;96995.40;;;0.79;100.00
43480;BME280;29067;35.492;-97.520;2023-03-21T09:54:26;96992.14;;;0.49;100.00
43480;BME280;29067;35.492;-97.520;2023-03-21T09:56:56;96968.37;;;1.14;100.00
43480;BME280;29067;35.492;-97.520;2023-03-21T09:59:30;96938.14;;;1.59;100.00
43480;BME280;29067;35.492;-97.520;2023-03-21T10:01:59;96919.10;;;1.29;100.00
43480;BME280;29067;35.492;-97.520;2023-03-21T10:04:27;96916.75;;;0.85;100.00
43480;BME280;29067;35.492;-97.520;2023-03-21T10:06:58;96869.49;;;0.87;100.00
43480;BME280;29067;35.492;-97.520;2023-03-21T10:09:28;96855.43;;;0.76;100.00
43480;BME280;29067;35.492;-97.520;2023-03-21T10:12:02;96875.05;;;0.27;100.00
43480;BME280;29067;35.492;-97.520;2023-03-21T10:14:34;96904.54;;;0.94;100.00
43480;BME280;29067;35.492;-97.520;2023-03-21T10:17:17;96909.71;;;1.01;100.00
43480;BME280;29067;35.492;-97.520;2023-03-21T10:19:52;96918.41;;;0.63;100.00
43480;BME280;29067;35.492;-97.520;2023-03-21T10:22:23;96925.51;;;1.33;100.00
43480;BME280;29067;35.492;-97.520;2023-03-21T10:24:51;96938.54;;;1.01;100.00
43480;BME280;29067;35.492;-97.520;2023-03-21T10:27:19;96940.66;;;1.53;100.00
43480;BME280;29067;35.492;-97.520;2023-03-21T10:29:47;96942.62;;;0.80;100.00
43480;BME280;29067;35.492;-97.520;2023-03-21T10:32:17;96951.80;;;1.29;100.00
43480;BME280;29067;35.492;-97.520;2023-03-21T10:34:48;96951.73;;;1.46;100.00
43480;BME280;29067;35.492;-97.520;2023-03-21T10:37:17;96946.59;;;0.56;100.00
43480;BME280;29067;35.492;-97.520;2023-03-21T10:39:47;96936.68;;;2.06;100.00
43480;BME280;29067;35.492;-97.520;2023-03-21T10:42:19;96927.63;;;1.73;100.00
43480;BME280;29067;35.492;-97.520;2023-03-21T10:44:49;96932.59;;;2.02;100.00
43480;BME280;29067;35.492;-97.520;2023-03-21T10:47:20;96929.99;;;0.75;100.00
43480;BME280;29067;35.492;-97.520;2023-03-21T10:49:49;96934.93;;;0.61;100.00
43480;BME280;29067;35.492;-97.520;2023-03-21T10:52:19;96931.05;;;1.68;100.00
43480;BME280;29067;35.492;-97.520;2023-03-21T10:54:49;96929.17;;;0.98;100.00
43480;BME280;29067;35.492;-97.520;2023-03-21T10:57:20;96906.59;;;0.87;100.00
43480;BME280;29067;35.492;-97.520;2023-03-21T10:59:53;96925.58;;;1.70;100.00
43480;BME280;29067;35.492;-97.520;2023-03-21T11:02:25;96916.88;;;2.08;100.00
43480;BME280;29067;35.492;-97.520;2023-03-21T11:04:55;96936.08;;;2.06;100.00
43480;BME280;29067;35.492;-97.520;2023-03-21T11:07:28;96917.61;;;2.40;100.00
43480;BME280;29067;35.492;-97.520;2023-03-21T11:09:59;96925.70;;;1.10;100.00
43480;BME280;29067;35.492;-97.520;2023-03-21T11:12:32;96923.59;;;0.98;100.00
43480;BME280;29067;35.492;-97.520;2023-03-21T11:15:23;96933.42;;;1.57;100.00
43480;BME280;29067;35.492;-97.520;2023-03-21T11:17:53;96927.37;;;1.33;100.00
43480;BME280;29067;35.492;-97.520;2023-03-21T11:20:21;96923.24;;;2.07;100.00
43480;BME280;29067;35.492;-97.520;2023-03-21T11:22:53;96937.08;;;2.34;100.00
43480;BME280;29067;35.492;-97.520;2023-03-21T11:25:26;96955.14;;;1.60;100.00
43480;BME280;29067;35.492;-97.520;2023-03-21T11:28:05;96958.89;;;1.73;100.00
43480;BME280;29067;35.492;-97.520;2023-03-21T11:30:35;96959.81;;;2.60;100.00
43480;BME280;29067;35.492;-97.520;2023-03-21T11:33:05;96975.77;;;2.72;99.68
43480;BME280;29067;35.492;-97.520;2023-03-21T11:35:36;96984.13;;;1.58;100.00
43480;BME280;29067;35.492;-97.520;2023-03-21T11:38:05;96981.08;;;1.32;100.00
43480;BME280;29067;35.492;-97.520;2023-03-21T11:40:34;96990.06;;;2.29;100.00
43480;BME280;29067;35.492;-97.520;2023-03-21T11:43:24;96986.88;;;2.72;100.00
43480;BME280;29067;35.492;-97.520;2023-03-21T11:45:56;96986.36;;;2.10;100.00
43480;BME280;29067;35.492;-97.520;2023-03-21T11:48:25;96986.23;;;1.43;100.00
43480;BME280;29067;35.492;-97.520;2023-03-21T11:50:59;96982.33;;;1.12;100.00
43480;BME280;29067;35.492;-97.520;2023-03-21T11:53:35;96972.69;;;2.48;100.00
43480;BME280;29067;35.492;-97.520;2023-03-21T11:56:13;96976.33;;;2.58;100.00
43480;BME280;29067;35.492;-97.520;2023-03-21T11:58:53;96978.14;;;2.16;100.00
43480;BME280;29067;35.492;-97.520;2023-03-21T12:03:20;96977.06;;;3.36;97.74
43480;BME280;29067;35.492;-97.520;2023-03-21T12:05:59;96978.94;;;2.70;98.65
43480;BME280;29067;35.492;-97.520;2023-03-21T12:08:37;96976.38;;;3.65;92.00
43480;BME280;29067;35.492;-97.520;2023-03-21T12:11:16;96977.80;;;3.11;97.77
43480;BME280;29067;35.492;-97.520;2023-03-21T12:13:53;96981.94;;;2.35;96.36
43480;BME280;29067;35.492;-97.520;2023-03-21T12:16:33;96978.71;;;2.66;98.83
43480;BME280;29067;35.492;-97.520;2023-03-21T12:19:16;96977.41;;;2.43;100.00
43480;BME280;29067;35.492;-97.520;2023-03-21T12:21:52;96977.17;;;3.08;98.26
43480;BME280;29067;35.492;-97.520;2023-03-21T12:24:28;96977.40;;;1.97;100.00
43480;BME280;29067;35.492;-97.520;2023-03-21T12:27:05;96979.03;;;2.11;100.00
43480;BME280;29067;35.492;-97.520;2023-03-21T12:29:46;96961.44;;;3.29;100.00
43480;BME280;29067;35.492;-97.520;2023-03-21T12:32:26;96977.84;;;2.08;100.00
43480;BME280;29067;35.492;-97.520;2023-03-21T12:35:15;96968.13;;;2.65;100.00
43480;BME280;29067;35.492;-97.520;2023-03-21T12:37:55;96964.02;;;2.16;100.00
43480;BME280;29067;35.492;-97.520;2023-03-21T12:40:35;96982.60;;;1.66;100.00
43480;BME280;29067;35.492;-97.520;2023-03-21T12:43:43;96968.38;;;3.32;100.00
43480;BME280;29067;35.492;-97.520;2023-03-21T12:46:18;96959.70;;;2.35;100.00
43480;BME280;29067;35.492;-97.520;2023-03-21T12:48:50;96951.94;;;1.95;100.00
43480;BME280;29067;35.492;-97.520;2023-03-21T12:51:25;96954.77;;;2.15;100.00
43480;BME280;29067;35.492;-97.520;2023-03-21T12:54:01;96926.37;;;3.08;100.00
43480;BME280;29067;35.492;-97.520;2023-03-21T12:56:33;96936.90;;;1.36;100.00
43480;BME280;29067;35.492;-97.520;2023-03-21T12:59:10;96930.27;;;1.91;100.00
43480;BME280;29067;35.492;-97.520;2023-03-21T13:01:41;96926.85;;;1.03;100.00
43480;BME280;29067;35.492;-97.520;2023-03-21T13:04:39;96929.65;;;2.90;100.00
43480;BME280;29067;35.492;-97.520;2023-03-21T13:07:11;96905.35;;;2.60;100.00
43480;BME280;29067;35.492;-97.520;2023-03-21T13:09:42;96913.69;;;3.00;100.00
43480;BME280;29067;35.492;-97.520;2023-03-21T13:12:27;96896.85;;;2.39;100.00